createdAt,value
2022-11-20T00:01:29.502Z,1
2022-11-20T00:11:29.579Z,1
2022-11-20T00:21:29.699Z,1
2022-11-20T00:31:29.586Z,1
2022-11-20T00:41:29.717Z,1
2022-11-20T00:51:29.582Z,1
2022-11-20T01:01:29.750Z,1
2022-11-20T01:11:29.583Z,1
2022-11-20T01:21:29.674Z,1
2022-11-20T01:31:29.576Z,1
2022-11-20T01:41:29.674Z,1
2022-11-20T01:51:29.562Z,1
2022-11-20T02:01:29.705Z,1
2022-11-20T02:11:29.764Z,1
2022-11-20T02:21:29.651Z,1
2022-11-20T02:31:29.753Z,1
2022-11-20T02:41:29.643Z,1
2022-11-20T02:51:29.743Z,1
2022-11-20T03:01:29.741Z,1
2022-11-20T03:11:29.742Z,1
2022-11-20T03:21:29.640Z,1
2022-11-20T03:31:29.730Z,1
2022-11-20T03:41:29.832Z,1
2022-11-20T03:51:29.754Z,1
2022-11-20T04:01:29.875Z,1
2022-11-20T04:11:29.732Z,1
2022-11-20T04:21:29.818Z,1
2022-11-20T04:31:29.737Z,1
2022-11-20T04:41:29.821Z,1
2022-11-20T04:51:29.929Z,1
2022-11-20T05:01:29.865Z,1
2022-11-20T05:11:29.940Z,1
2022-11-20T05:21:29.805Z,1
2022-11-20T05:31:29.905Z,1
2022-11-20T05:41:29.822Z,1
2022-11-20T05:51:29.911Z,1
2022-11-20T06:01:29.810Z,1
2022-11-20T06:11:29.904Z,1
2022-11-20T06:21:30.005Z,1
2022-11-20T06:31:29.902Z,1
2022-11-20T06:41:29.998Z,1
2022-11-20T06:51:29.889Z,1
2022-11-20T07:01:29.976Z,1
2022-11-20T07:11:29.869Z,1
2022-11-20T07:21:29.989Z,8
2022-11-20T07:31:30.087Z,28
2022-11-20T07:41:29.984Z,46
2022-11-20T07:51:30.080Z,32
2022-11-20T08:01:29.989Z,52
2022-11-20T08:11:30.078Z,69
2022-11-20T08:21:32.752Z,78
2022-11-20T08:31:30.080Z,86
2022-11-20T08:41:29.971Z,87
2022-11-20T08:51:30.066Z,87
2022-11-20T09:01:30.261Z,88
2022-11-20T09:11:30.071Z,88
2022-11-20T09:21:30.154Z,92
2022-11-20T09:31:30.056Z,92
2022-11-20T09:41:30.163Z,93
2022-11-20T09:51:30.054Z,93
2022-11-20T10:01:30.229Z,93
2022-11-20T10:11:30.071Z,93
2022-11-20T10:21:30.159Z,94
2022-11-20T10:31:30.253Z,95
2022-11-20T10:41:32.008Z,95
2022-11-20T10:51:30.493Z,95
2022-11-20T11:01:30.169Z,95
2022-11-20T11:11:30.246Z,96
2022-11-20T11:21:30.138Z,95
2022-11-20T11:31:30.226Z,95
2022-11-20T11:41:30.325Z,95
2022-11-20T11:51:30.236Z,96
2022-11-20T12:01:30.326Z,96
2022-11-20T12:11:30.289Z,95
2022-11-20T12:21:30.376Z,94
2022-11-20T12:31:30.272Z,94
2022-11-20T12:41:30.399Z,94
2022-11-20T12:51:30.300Z,94
2022-11-20T13:01:30.429Z,94
2022-11-20T13:11:30.297Z,94
2022-11-20T13:21:30.384Z,92
2022-11-20T13:31:30.297Z,91
2022-11-20T13:41:30.389Z,90
2022-11-20T13:51:30.293Z,90
2022-11-20T14:01:30.493Z,92
2022-11-20T14:11:30.480Z,84
2022-11-20T14:21:30.549Z,81
2022-11-20T14:31:30.457Z,88
2022-11-20T14:41:30.347Z,92
2022-11-20T14:51:30.589Z,92
2022-11-20T15:01:30.362Z,87
2022-11-20T15:11:30.470Z,86
2022-11-20T15:21:30.385Z,91
2022-11-20T15:31:30.464Z,91
2022-11-20T15:41:30.585Z,88
2022-11-20T15:51:30.479Z,80
2022-11-20T16:01:30.632Z,56
2022-11-20T16:11:30.454Z,35
2022-11-20T16:21:30.509Z,32
2022-11-20T16:31:30.527Z,11
2022-11-20T16:41:30.415Z,4
2022-11-20T16:51:30.526Z,1
2022-11-20T17:01:30.745Z,1
2022-11-20T17:11:30.688Z,1
2022-11-20T17:21:30.776Z,1
2022-11-20T17:31:30.497Z,1
2022-11-20T17:41:30.653Z,1
2022-11-20T17:51:30.538Z,1
2022-11-20T18:01:30.629Z,1
2022-11-20T18:11:30.842Z,1
2022-11-20T18:21:30.589Z,1
2022-11-20T18:31:30.692Z,1
2022-11-20T18:41:30.578Z,1
2022-11-20T18:51:30.687Z,1
2022-11-20T19:01:30.807Z,1
2022-11-20T19:11:30.685Z,1
2022-11-20T19:21:30.591Z,1
2022-11-20T19:31:30.684Z,1
2022-11-20T19:41:30.788Z,1
2022-11-20T19:51:30.681Z,1
2022-11-20T20:01:30.912Z,1
2022-11-20T20:11:30.667Z,1
2022-11-20T20:21:30.794Z,1
2022-11-20T20:31:30.679Z,1
2022-11-20T20:41:30.862Z,1
2022-11-20T20:51:30.669Z,1
2022-11-20T21:01:30.803Z,1
2022-11-20T21:11:31.074Z,1
2022-11-20T21:21:30.760Z,1
2022-11-20T21:31:30.977Z,1
2022-11-20T21:41:30.774Z,1
2022-11-20T21:51:30.870Z,1
2022-11-20T22:01:30.904Z,1
2022-11-20T22:11:30.886Z,1
2022-11-20T22:21:30.758Z,1
2022-11-20T22:31:30.907Z,1
2022-11-20T22:41:30.804Z,1
2022-11-20T22:51:30.920Z,1
2022-11-20T23:01:30.813Z,1
2022-11-20T23:11:30.908Z,1
2022-11-20T23:21:30.989Z,1
2022-11-20T23:31:30.890Z,1
2022-11-20T23:41:30.991Z,1
2022-11-20T23:51:30.901Z,1
